|
公历农历对照

机场天气预报 (TAF)

机场天气预报 (TAF) 载述关于某个机场在预测期内预料会出现的气象要素。

香港天文台在 19 年 06 月 18 日 13 时 00 分最新发出的香港国际机场天气预报

TAF VHHH 180500Z 1806/1912 15010KT 9999 FEW010 SCT030 TX32/1806Z TX33/1906Z TN28/1822Z TEMPO 1806/1809 3000 -TSRA SHRA FEW010CB SCT025 TEMPO 1821/1901 4000 SHRA FEW010CB SCT025 TEMPO 1903/1910 24010KT=

(下次更新时间:19年06月18日19时00分)

机场天气预报电码经解码后:-

香港天文台发出 2019 年 06 月 18 日 06 协调世界时 至 2019 年 06 月 19 日 12 协调世界时 的机场天气预报:
 

时间(协调世界时) 能见度 天气状况 云层 云层高度
2019 年 06 月 18 日 06 时 至 2019 年 06 月 19 日 12 时 东南偏南风 (150 o) 10 海里/小时 10 公里以上 无重要天气状况
1-2
3-4
1000 呎
3000 呎
2019 年 06 月 18 日 06 时 至 09 时 期间间中 东南偏南风 (150 o) 10 海里/小时 3000 米 雷暴及微雨, 骤雨
1-2 积雨云
3-4
1000 呎
2500 呎
2019 年 06 月 18 日 21 时 至 2019 年 06 月 19 日 01 时 期间间中 东南偏南风 (150 o) 10 海里/小时 4000 米 骤雨
1-2 积雨云
3-4
1000 呎
2500 呎
2019 年 06 月 19 日 03 时 至 10 时 期间间中 西南偏西风 (240 o) 10 海里/小时 10 公里以上 无重要天气状况
1-2
3-4
1000 呎
3000 呎

时间(协调世界时) 气温
2019 年 06 月 18 日 06 时
最高32 oC
2019 年 06 月 19 日 06 时
最高33 oC
2019 年 06 月 18 日 22 时
最低28 oC

份: 云层是以估计天空被云遮蔽之总面积来评定。把天空分为八份,1 份即是八份之一的天空被云遮蔽,2 份即是八份之二的天空被云遮蔽,如此类推。
  0 份 = 天朗气清,1-2 份 = 稀薄云层,3-4 份 = 零散云层,5-7 份 = 疏松云层,8 份 = 天色阴暗。
若想进一步了解机场天气预报(TAF)的编码,请参看剖析TAF电码的意义
若想进一步了解云,请参看香港常见的云
 
香港国际机场航空天气报告资料 本港地区航空天气预报
 
版权及声明